Google Maps JavaScript API Example
Pilot Flight Report # 90718 Submitted by : AST279 on 2018-02-23
Date: 2018-02-23Aircraft: Boeing 737-800
Flight No.: Not AvailableDistance (Nm): 159.04
Departure: VOMM - Chennai InternationalDestination: VOTR - Tiruchirappalli
 TimeFuelWeightSpeeds  
Out (Taxi)0322Z45421 lbs167225 lbs Flight RulesIFR
Off (Takeoff)0328Z 166375 lbs144 ktsFlight Level10000
On (Landing)0414Z 160231 lbs125 ktsVSTD-70 ft/min
In (Ramp)0416Z38246 lbs160051 lbs ZFW121800 lbs
Flight0.80  -  0:466143 lbs  Pax0
Block0.90  -  0:547175 lbs  Cargo0
Departure WeatherVCCW 220322Z 26203KT 1SM OVC010 FEW020 22/21 A2988
Destination WeatherVOTR 220416Z 02502KT 2SM OVC010 FEW018 22/18 A2985
Flight Comments